Mountlake Terrace, Washington
Current Conditions -  °F | °C
As of 12:28 PM on Friday 31 Oct 2014 (Local Time) from KPAE Reporting Station
Overcast Overcast  
Wind Chill: 50°   Ceiling: 1500
Heat Index: 50°   Visibility: 10mi
Dew Point: 48°   Wind: 5mph
Humidity: 93%   Direction: 240°WSW
Pressure: 29.81"   Gusts: NA
Location:  47.79°N, 122.31°W
Report Text: KPAE 311928Z 24004KT 10SM FEW006 BKN015 OVC041 10/09 A2981 RMK AO2 T01000089
Loading
Personal Weather Stations






























Interactive Weather Map
Tropical Storm Tracking
New forecast layout! Learn more

10-Day Weather Forecast

Advertisements
Track Severe Weather on mobile